Terminal Aerodrome Forecast
Issued by NWS Buffalo, NY

Home | Current Version | Previous Version | Text Only | Print | Product List | Glossary On
Versions: 1 2 3 4 5 6 7 8 9 10 11 12 13 14 15 16 17 18 19 20 21 22 23 24 25 26 27 28 29
000
FTUS41 KBUF 240300 AAA
TAFART
TAF AMD
KART 240300Z 2403/2424 17004KT P6SM BKN080
     FM240600 00000KT P6SM SCT060
     FM241300 16004KT P6SM SCT050
     FM241600 20006KT P6SM SCT250
     FM242100 23005KT P6SM BKN250=

USA.gov is the U.S. government's official web portal to all federal, state and local government web resources and services.